Time;durP1;ratioP1;P1;durP2;ratioP2;P2;SDS_P1;SDS_P2;PMS_P1;PMS_P2;Temp;Humidity;BMP_temperature;BMP_pressure;BME280_temperature;BME280_humidity;BME280_pressure;Samples;Min_cycle;Max_cycle;Signal;HPM_P1;HPM_P2
2021/05/21 00:00:40;;;;;;;2.77;2.57;;;13.50;99.90;;;;;;5095501;28;20489;-82
2021/05/21 00:03:06;;;;;;;2.30;2.10;;;13.50;99.90;;;;;;5095513;28;20488;-82
2021/05/21 00:05:32;;;;;;;3.87;2.90;;;13.50;99.90;;;;;;5095611;28;20833;-82
2021/05/21 00:07:59;;;;;;;2.60;2.40;;;13.50;99.90;;;;;;5095394;28;20446;-82
2021/05/21 00:10:25;;;;;;;2.97;2.77;;;13.50;99.90;;;;;;5095369;28;20513;-82
2021/05/21 00:12:52;;;;;;;2.77;2.53;;;13.60;99.90;;;;;;5095480;28;20843;-82
2021/05/21 00:15:18;;;;;;;2.20;2.10;;;13.60;99.90;;;;;;5095380;28;20509;-82
2021/05/21 00:17:44;;;;;;;2.90;2.70;;;13.50;99.90;;;;;;5095147;28;20964;-82
2021/05/21 00:20:12;;;;;;;2.93;2.53;;;13.50;99.90;;;;;;5095034;28;20450;-81
2021/05/21 00:22:38;;;;;;;2.57;2.37;;;13.50;99.90;;;;;;5095098;28;20447;-81
2021/05/21 00:25:07;;;;;;;3.67;2.80;;;13.50;99.90;;;;;;5091313;28;20474;-81
2021/05/21 00:27:33;;;;;;;2.53;2.30;;;13.50;99.90;;;;;;5093867;28;20538;-81
2021/05/21 00:29:59;;;;;;;3.40;2.80;;;13.50;99.90;;;;;;5094884;28;20474;-81
2021/05/21 00:32:25;;;;;;;3.60;3.00;;;13.50;99.90;;;;;;5095038;28;20481;-81
2021/05/21 00:34:52;;;;;;;2.90;2.70;;;13.50;99.90;;;;;;5093269;28;20478;-82
2021/05/21 00:37:18;;;;;;;2.97;2.77;;;13.50;99.90;;;;;;5092477;28;20446;-82
2021/05/21 00:39:44;;;;;;;2.53;2.40;;;13.50;99.90;;;;;;5094711;28;20451;-83
2021/05/21 00:42:11;;;;;;;2.90;2.70;;;13.50;99.90;;;;;;5094459;28;20930;-83
2021/05/21 00:44:37;;;;;;;2.70;2.50;;;13.50;99.90;;;;;;5094792;28;20492;-83
2021/05/21 00:47:04;;;;;;;3.03;2.80;;;13.50;99.90;;;;;;5094876;28;20454;-83
2021/05/21 00:49:30;;;;;;;3.00;2.70;;;13.50;99.90;;;;;;5094550;28;20457;-82
2021/05/21 00:51:56;;;;;;;6.90;3.20;;;13.50;99.90;;;;;;5094602;28;20443;-83
2021/05/21 00:54:22;;;;;;;2.90;2.70;;;13.50;99.90;;;;;;5094452;28;20447;-82
2021/05/21 00:56:48;;;;;;;3.40;3.10;;;13.50;99.90;;;;;;5094479;28;20507;-83
2021/05/21 00:59:16;;;;;;;3.07;2.80;;;13.50;99.90;;;;;;5094521;28;20525;-83
2021/05/21 01:01:44;;;;;;;2.77;2.67;;;13.50;99.90;;;;;;5094347;28;20446;-83
2021/05/21 01:04:10;;;;;;;2.90;2.70;;;13.40;99.90;;;;;;5094317;28;20459;-83
2021/05/21 01:06:36;;;;;;;3.10;2.80;;;13.40;99.90;;;;;;5094287;28;20938;-82
2021/05/21 01:09:02;;;;;;;3.03;2.90;;;13.30;99.90;;;;;;5094265;28;20470;-81
2021/05/21 01:11:29;;;;;;;2.93;2.73;;;13.30;99.90;;;;;;5094088;28;20563;-81
2021/05/21 01:13:55;;;;;;;2.60;2.40;;;13.30;99.90;;;;;;5094432;28;20846;-82
2021/05/21 01:16:22;;;;;;;3.20;3.00;;;13.30;99.90;;;;;;5094515;28;20483;-82
2021/05/21 01:18:48;;;;;;;3.10;2.90;;;13.30;99.90;;;;;;5094153;28;20457;-82
2021/05/21 01:21:15;;;;;;;2.73;2.63;;;13.30;99.90;;;;;;5094252;28;21024;-82
2021/05/21 01:23:41;;;;;;;3.00;2.80;;;13.30;99.90;;;;;;5094133;28;20821;-83
2021/05/21 01:26:07;;;;;;;3.13;2.93;;;13.20;99.90;;;;;;5094306;28;20489;-83
2021/05/21 01:28:33;;;;;;;3.30;3.10;;;13.20;99.90;;;;;;5094304;28;20474;-84
2021/05/21 01:30:59;;;;;;;3.30;2.80;;;13.30;99.90;;;;;;5089710;28;20883;-84
2021/05/21 01:33:25;;;;;;;3.30;3.10;;;13.20;99.90;;;;;;5093907;28;20571;-83
2021/05/21 01:35:53;;;;;;;3.90;2.80;;;13.20;99.90;;;;;;5093727;28;20488;-82
2021/05/21 01:38:20;;;;;;;2.93;2.63;;;13.30;99.90;;;;;;5093832;28;20442;-83
2021/05/21 01:40:48;;;;;;;4.60;3.00;;;13.20;99.90;;;;;;5094050;28;20442;-83
2021/05/21 01:43:16;;;;;;;2.10;2.00;;;13.20;99.90;;;;;;5094217;28;20447;-83
2021/05/21 01:45:42;;;;;;;2.93;2.73;;;13.20;99.90;;;;;;5093508;28;20511;-82
2021/05/21 01:48:10;;;;;;;2.53;2.43;;;13.20;99.90;;;;;;5093522;28;20442;-82
2021/05/21 01:50:37;;;;;;;2.67;2.47;;;13.20;99.90;;;;;;5093260;28;21014;-82
2021/05/21 01:53:03;;;;;;;2.60;2.50;;;13.20;99.90;;;;;;5093413;28;20482;-82
2021/05/21 01:55:30;;;;;;;2.60;2.50;;;13.10;99.90;;;;;;5093484;28;20442;-81
2021/05/21 01:57:56;;;;;;;2.87;2.67;;;13.10;99.90;;;;;;5093299;28;20797;-81
2021/05/21 02:00:22;;;;;;;3.20;3.00;;;13.00;99.90;;;;;;5093422;28;20451;-81
2021/05/21 02:02:48;;;;;;;3.97;3.00;;;13.00;99.90;;;;;;5093254;28;20525;-81
2021/05/21 02:05:14;;;;;;;3.83;3.40;;;12.90;99.90;;;;;;5093098;28;20438;-84
2021/05/21 02:07:40;;;;;;;2.73;2.53;;;12.80;99.90;;;;;;5093063;28;20533;-84
2021/05/21 02:10:08;;;;;;;4.20;2.90;;;12.80;99.90;;;;;;5093247;28;20869;-84
2021/05/21 02:12:37;;;;;;;2.77;2.57;;;12.80;99.90;;;;;;5093381;28;20529;-84
2021/05/21 02:15:06;;;;;;;2.90;2.70;;;12.80;99.90;;;;;;5093189;28;20485;-85
2021/05/21 02:17:32;;;;;;;2.70;2.50;;;12.80;99.90;;;;;;5093029;28;20836;-85
2021/05/21 02:20:00;;;;;;;3.40;3.10;;;12.80;99.90;;;;;;5092846;28;20446;-83
2021/05/21 02:22:27;;;;;;;2.80;2.60;;;12.80;99.90;;;;;;5093130;28;20450;-83
2021/05/21 02:24:55;;;;;;;2.73;2.53;;;12.80;99.90;;;;;;5092759;28;20505;-84
2021/05/21 02:27:21;;;;;;;2.97;2.87;;;12.90;99.90;;;;;;5093111;28;20486;-83
2021/05/21 02:29:48;;;;;;;4.20;2.80;;;12.90;99.90;;;;;;5087997;28;20458;-79
2021/05/21 02:32:14;;;;;;;2.80;2.60;;;12.90;99.90;;;;;;5092832;28;20536;-79
2021/05/21 02:34:41;;;;;;;2.47;2.27;;;13.00;99.90;;;;;;5092699;28;21039;-79
2021/05/21 02:37:07;;;;;;;2.90;2.80;;;13.00;99.90;;;;;;5092858;28;20919;-79
2021/05/21 02:39:33;;;;;;;3.23;3.00;;;13.00;99.90;;;;;;5092755;28;20538;-81
2021/05/21 02:41:59;;;;;;;3.10;2.90;;;13.00;99.90;;;;;;5092606;28;20447;-82
2021/05/21 02:44:25;;;;;;;2.90;2.70;;;13.00;99.90;;;;;;5092750;28;20439;-80
2021/05/21 02:46:52;;;;;;;3.20;2.67;;;13.10;99.90;;;;;;5092585;28;20474;-81
2021/05/21 02:49:20;;;;;;;3.20;2.90;;;13.10;99.90;;;;;;5092026;28;20520;-79
2021/05/21 02:51:46;;;;;;;3.97;2.83;;;13.00;99.90;;;;;;5092314;28;20551;-81
2021/05/21 02:54:12;;;;;;;3.20;3.00;;;13.00;99.90;;;;;;5076155;28;20474;-81
2021/05/21 02:56:39;;;;;;;3.17;2.70;;;12.90;99.90;;;;;;5092590;28;20848;-80
2021/05/21 02:59:05;;;;;;;2.90;2.70;;;12.90;99.90;;;;;;5092572;28;20443;-80
2021/05/21 03:01:31;;;;;;;2.83;2.73;;;12.90;99.90;;;;;;5092452;28;20482;-81
2021/05/21 03:03:58;;;;;;;2.60;2.40;;;12.80;99.90;;;;;;5090193;28;20594;-80
2021/05/21 03:06:24;;;;;;;2.60;2.40;;;12.80;99.90;;;;;;5091492;28;20854;-80
2021/05/21 03:08:50;;;;;;;3.50;3.20;;;12.80;99.90;;;;;;5091824;28;20537;-80
2021/05/21 03:11:17;;;;;;;2.40;2.20;;;12.80;99.90;;;;;;5092086;28;20482;-88
2021/05/21 03:13:43;;;;;;;3.13;2.93;;;12.80;99.90;;;;;;5092522;28;20442;-84
2021/05/21 03:16:09;;;;;;;3.83;3.40;;;12.70;99.90;;;;;;5092314;28;20481;-85
2021/05/21 03:18:35;;;;;;;2.73;2.53;;;12.70;99.90;;;;;;5092166;28;20443;-81
2021/05/21 03:21:02;;;;;;;3.10;2.90;;;12.90;99.90;;;;;;5092350;28;20929;-80
2021/05/21 03:23:28;;;;;;;3.50;3.30;;;12.60;99.90;;;;;;5090856;28;20549;-80
2021/05/21 03:25:54;;;;;;;2.73;2.63;;;12.60;99.90;;;;;;5091988;28;20871;-80
2021/05/21 03:28:21;;;;;;;2.77;2.60;;;12.70;99.90;;;;;;5090691;28;20529;-80
2021/05/21 03:30:47;;;;;;;3.13;2.93;;;12.70;99.90;;;;;;5087055;28;21050;-81
2021/05/21 03:33:14;;;;;;;3.30;3.10;;;12.80;99.90;;;;;;5092251;28;20450;-81
2021/05/21 03:35:40;;;;;;;3.47;2.90;;;12.80;99.90;;;;;;5092269;28;20461;-81
2021/05/21 03:38:08;;;;;;;5.00;3.10;;;12.90;99.90;;;;;;5092158;28;20535;-81
2021/05/21 03:40:35;;;;;;;2.90;2.70;;;12.90;99.90;;;;;;5092237;28;20553;-80
2021/05/21 03:43:02;;;;;;;3.50;2.80;;;13.00;99.90;;;;;;5091994;28;20474;-80
2021/05/21 03:45:28;;;;;;;2.83;2.63;;;13.10;99.90;;;;;;5092106;28;20442;-80
2021/05/21 03:47:54;;;;;;;3.30;2.80;;;13.10;99.90;;;;;;5091989;28;20482;-80
2021/05/21 03:50:21;;;;;;;4.10;3.60;;;13.20;99.90;;;;;;5092146;28;20917;-80
2021/05/21 03:52:47;;;;;;;3.10;2.90;;;13.30;99.90;;;;;;5092079;28;20443;-80
2021/05/21 03:55:15;;;;;;;3.53;2.73;;;13.40;99.90;;;;;;5092088;28;20449;-80
2021/05/21 03:57:41;;;;;;;2.90;2.70;;;13.40;99.90;;;;;;5091821;28;20482;-80
2021/05/21 04:00:10;;;;;;;2.60;2.43;;;13.50;99.90;;;;;;5091813;28;20539;-81
2021/05/21 04:02:37;;;;;;;2.93;2.73;;;13.50;99.90;;;;;;5094635;28;20442;-81
2021/05/21 04:05:04;;;;;;;3.00;2.80;;;13.50;99.90;;;;;;5095877;28;20670;-80
2021/05/21 04:07:30;;;;;;;3.53;3.10;;;13.50;99.90;;;;;;5095622;28;20568;-80
2021/05/21 04:09:56;;;;;;;2.93;2.73;;;13.50;99.90;;;;;;5095296;28;20945;-80
2021/05/21 04:12:25;;;;;;;2.97;2.77;;;13.40;99.90;;;;;;5095582;28;20469;-81
2021/05/21 04:14:51;;;;;;;3.03;2.83;;;13.30;99.90;;;;;;5095683;28;20449;-81
2021/05/21 04:17:19;;;;;;;2.33;2.23;;;13.20;99.90;;;;;;5095640;28;20454;-81
2021/05/21 04:19:45;;;;;;;3.57;3.27;;;13.10;99.90;;;;;;5095374;28;20464;-81
2021/05/21 04:22:12;;;;;;;3.70;3.40;;;13.10;99.90;;;;;;5095264;28;20454;-80
2021/05/21 04:24:38;;;;;;;3.13;2.93;;;12.90;99.90;;;;;;5095212;28;20513;-80
2021/05/21 04:27:04;;;;;;;4.37;2.80;;;12.90;99.90;;;;;;5094947;28;20489;-80
2021/05/21 04:29:31;;;;;;;3.50;3.20;;;12.90;99.90;;;;;;5092846;28;20961;-80
2021/05/21 04:31:58;;;;;;;3.80;3.50;;;12.80;99.90;;;;;;5093175;28;20565;-80
2021/05/21 04:34:24;;;;;;;3.40;3.10;;;12.90;99.90;;;;;;5095395;28;20833;-80
2021/05/21 04:36:50;;;;;;;3.93;3.53;;;12.80;99.90;;;;;;5095133;28;20451;-80
2021/05/21 04:39:16;;;;;;;3.00;2.80;;;12.90;99.90;;;;;;5095008;28;20453;-80
2021/05/21 04:41:42;;;;;;;10.63;9.57;;;12.90;99.90;;;;;;5094980;28;20447;-80
2021/05/21 04:44:11;;;;;;;4.47;4.07;;;13.00;99.90;;;;;;5094705;28;20802;-81
2021/05/21 04:46:38;;;;;;;3.33;2.93;;;13.10;99.90;;;;;;5095021;28;20453;-81
2021/05/21 04:49:04;;;;;;;3.10;2.90;;;13.90;99.90;;;;;;5094923;28;20460;-81
2021/05/21 04:51:30;;;;;;;4.00;3.20;;;13.30;99.90;;;;;;5094723;28;20485;-81
2021/05/21 04:53:58;;;;;;;2.87;2.60;;;13.40;99.90;;;;;;5094555;28;20450;-80
2021/05/21 04:56:24;;;;;;;3.23;2.93;;;13.50;99.90;;;;;;5094619;28;20960;-81
2021/05/21 04:58:50;;;;;;;3.03;2.83;;;13.50;99.90;;;;;;5094685;28;20446;-80
2021/05/21 05:01:16;;;;;;;4.07;2.60;;;13.50;99.90;;;;;;5094668;28;20465;-80
2021/05/21 05:03:43;;;;;;;3.40;2.93;;;13.50;99.90;;;;;;5094342;28;20492;-80
2021/05/21 05:06:10;;;;;;;2.37;2.17;;;13.60;99.90;;;;;;5094391;28;20600;-80
2021/05/21 05:08:36;;;;;;;5.43;3.03;;;13.60;99.90;;;;;;5094286;28;20802;-81
2021/05/21 05:11:02;;;;;;;3.33;3.07;;;13.70;99.90;;;;;;5094210;28;20470;-80
2021/05/21 05:13:29;;;;;;;3.07;2.87;;;13.90;99.90;;;;;;5094034;28;20449;-80
2021/05/21 05:15:55;;;;;;;5.00;3.53;;;13.70;99.90;;;;;;5093998;28;21003;-80
2021/05/21 05:18:21;;;;;;;2.30;2.20;;;13.80;99.90;;;;;;5094270;28;20442;-80
2021/05/21 05:20:48;;;;;;;2.80;2.63;;;13.80;99.90;;;;;;5094228;28;20945;-80
2021/05/21 05:23:14;;;;;;;3.80;2.70;;;13.80;99.90;;;;;;5093732;28;20529;-80
2021/05/21 05:25:41;;;;;;;3.40;3.20;;;13.90;99.90;;;;;;5093766;28;20439;-80
2021/05/21 05:28:08;;;;;;;2.23;2.03;;;13.90;99.90;;;;;;5093998;28;20446;-80
2021/05/21 05:30:34;;;;;;;2.70;2.50;;;14.00;99.90;;;;;;5089520;28;20532;-80
2021/05/21 05:33:00;;;;;;;2.67;2.50;;;14.10;99.90;;;;;;5093996;28;20478;-80
2021/05/21 05:35:26;;;;;;;3.13;2.93;;;14.20;99.90;;;;;;5093803;28;20529;-80
2021/05/21 05:37:53;;;;;;;2.53;2.37;;;14.30;99.90;;;;;;5093508;28;20941;-81
2021/05/21 05:40:19;;;;;;;3.80;2.20;;;14.50;99.90;;;;;;5093918;28;20529;-80
2021/05/21 05:42:45;;;;;;;1.83;1.73;;;14.60;99.90;;;;;;5093790;28;20869;-81
2021/05/21 05:45:13;;;;;;;2.93;2.53;;;14.80;99.90;;;;;;5093701;28;20928;-81
2021/05/21 05:47:39;;;;;;;2.50;2.30;;;15.00;99.90;;;;;;5093733;28;20485;-81
2021/05/21 05:50:05;;;;;;;5.03;2.30;;;15.30;99.90;;;;;;5093461;28;20482;-81
2021/05/21 05:52:32;;;;;;;5.43;2.50;;;15.70;99.90;;;;;;5093677;28;20450;-81
2021/05/21 05:54:58;;;;;;;5.33;2.03;;;16.10;99.90;;;;;;5093340;28;20442;-81
2021/05/21 05:57:24;;;;;;;2.40;2.20;;;16.60;99.90;;;;;;5093879;28;20504;-81
2021/05/21 05:59:51;;;;;;;3.93;2.00;;;17.10;99.90;;;;;;5093354;28;20543;-80
2021/05/21 06:02:17;;;;;;;3.73;2.00;;;17.50;99.90;;;;;;5093420;28;20450;-80
2021/05/21 06:04:43;;;;;;;1.93;1.83;;;18.00;99.90;;;;;;5093460;28;20806;-80
2021/05/21 06:07:09;;;;;;;2.13;1.80;;;18.40;99.90;;;;;;5093241;28;20533;-80
2021/05/21 06:09:35;;;;;;;2.37;2.17;;;18.80;99.90;;;;;;5093360;28;20454;-80
2021/05/21 06:12:02;;;;;;;2.30;2.10;;;19.20;99.90;;;;;;5092907;28;21007;-80
2021/05/21 06:14:29;;;;;;;2.70;2.50;;;19.60;99.90;;;;;;5093295;28;20442;-80
2021/05/21 06:16:55;;;;;;;1.73;1.63;;;19.90;99.90;;;;;;5093368;28;20454;-80
2021/05/21 06:19:27;;;;;;;2.30;1.50;;;20.20;99.90;;;;;;5093007;28;20482;-80
2021/05/21 06:21:53;;;;;;;2.07;1.90;;;20.50;99.90;;;;;;5092830;28;20942;-80
2021/05/21 06:24:19;;;;;;;1.77;1.67;;;20.70;99.90;;;;;;5092062;28;20474;-80
2021/05/21 06:27:15;;;;;;;2.30;2.10;;;20.70;99.90;;;;;;5093210;28;20474;-81
2021/05/21 06:29:33;;;;;;;1.70;1.43;;;20.90;99.90;;;;;;5090053;28;20463;-80
2021/05/21 06:32:02;;;;;;;2.33;1.53;;;21.20;99.90;;;;;;5090504;28;21091;-81
2021/05/21 06:34:28;;;;;;;1.30;1.20;;;21.20;99.90;;;;;;5092540;28;20515;-81
2021/05/21 06:36:54;;;;;;;1.73;1.20;;;21.20;99.90;;;;;;5092846;28;20810;-81
2021/05/21 06:39:20;;;;;;;1.30;1.20;;;21.60;99.90;;;;;;5091960;28;20457;-82
2021/05/21 06:41:46;;;;;;;1.30;1.20;;;22.50;99.90;;;;;;5092407;28;20453;-82
2021/05/21 06:44:13;;;;;;;2.23;1.40;;;22.60;99.90;;;;;;5090891;28;20564;-82
2021/05/21 06:46:39;;;;;;;2.53;1.30;;;22.80;99.90;;;;;;5092043;28;20472;-81
2021/05/21 06:49:11;;;;;;;2.87;1.30;;;23.00;99.90;;;;;;5092461;28;20487;-81
2021/05/21 06:51:38;;;;;;;1.13;1.03;;;23.20;99.90;;;;;;5092132;28;20482;-82
2021/05/21 06:54:05;;;;;;;1.60;1.50;;;23.40;99.90;;;;;;5092383;28;20551;-79
2021/05/21 06:56:36;;;;;;;1.60;1.30;;;23.10;99.90;;;;;;5092646;28;20466;-77
2021/05/21 06:59:03;;;;;;;1.67;1.10;;;23.10;99.90;;;;;;5089925;28;20507;-77
2021/05/21 07:01:29;;;;;;;1.70;1.27;;;22.90;99.90;;;;;;5087808;28;20472;-77
2021/05/21 07:03:56;;;;;;;1.93;1.20;;;23.00;99.90;;;;;;5092223;28;20474;-77
2021/05/21 07:06:22;;;;;;;1.87;1.47;;;23.40;99.90;;;;;;5092520;28;20529;-77
2021/05/21 07:08:49;;;;;;;2.50;1.20;;;23.80;99.90;;;;;;5092472;28;20601;-77
2021/05/21 07:11:16;;;;;;;1.27;1.17;;;24.00;99.90;;;;;;5092026;28;21044;-77
2021/05/21 07:13:42;;;;;;;1.40;1.30;;;23.90;99.30;;;;;;5092231;28;20458;-77
2021/05/21 07:16:10;;;;;;;5.20;1.30;;;23.40;99.00;;;;;;5091803;28;20454;-76
2021/05/21 07:18:36;;;;;;;2.07;1.10;;;22.80;99.30;;;;;;5092260;28;20534;-77
2021/05/21 07:21:03;;;;;;;1.40;1.17;;;22.50;99.90;;;;;;5092431;28;20449;-77
2021/05/21 07:23:30;;;;;;;1.40;1.10;;;22.70;99.90;;;;;;5092038;28;20505;-77
2021/05/21 07:25:56;;;;;;;2.60;1.20;;;22.80;99.90;;;;;;5092107;28;20477;-77
2021/05/21 07:28:24;;;;;;;1.47;1.37;;;22.90;99.70;;;;;;5092065;28;20481;-77
2021/05/21 07:30:50;;;;;;;3.83;1.10;;;22.80;99.70;;;;;;5091840;28;20822;-77
2021/05/21 07:33:16;;;;;;;2.47;1.43;;;22.60;99.00;;;;;;5092100;28;20474;-77
2021/05/21 07:35:44;;;;;;;1.17;1.07;;;22.50;99.40;;;;;;5093369;28;20500;-77
2021/05/21 07:38:11;;;;;;;1.20;1.10;;;22.40;99.50;;;;;;5095943;28;20454;-77
2021/05/21 07:40:37;;;;;;;1.90;1.13;;;22.30;99.50;;;;;;5093628;28;20545;-77
2021/05/21 07:43:03;;;;;;;1.37;1.13;;;22.20;99.70;;;;;;5095802;28;20499;-77
2021/05/21 07:45:29;;;;;;;1.80;1.20;;;22.00;99.90;;;;;;5096299;28;20447;-77
2021/05/21 07:47:55;;;;;;;1.97;1.10;;;21.80;99.90;;;;;;5096218;28;20533;-77
2021/05/21 07:50:22;;;;;;;1.30;1.10;;;21.60;99.90;;;;;;5095970;28;20523;-77
2021/05/21 07:52:48;;;;;;;1.10;1.00;;;21.50;99.90;;;;;;5095959;28;20545;-77
2021/05/21 07:55:14;;;;;;;3.07;1.30;;;21.80;99.90;;;;;;5095406;28;20443;-77
2021/05/21 07:57:40;;;;;;;1.63;1.20;;;22.10;99.90;;;;;;5095764;28;20499;-77
2021/05/21 08:00:09;;;;;;;2.23;1.10;;;22.30;99.90;;;;;;5095747;28;20438;-77
2021/05/21 08:02:35;;;;;;;1.30;1.20;;;22.40;99.90;;;;;;5095795;28;20961;-77
2021/05/21 08:05:01;;;;;;;1.37;1.20;;;22.50;99.90;;;;;;5095479;28;20474;-77
2021/05/21 08:07:27;;;;;;;1.10;1.00;;;22.60;99.90;;;;;;5094978;28;20988;-77
2021/05/21 08:09:55;;;;;;;2.07;1.40;;;22.70;99.80;;;;;;5095432;28;20852;-77
2021/05/21 08:12:22;;;;;;;2.40;1.40;;;22.70;99.80;;;;;;5095254;28;20489;-77
2021/05/21 08:14:48;;;;;;;1.30;1.03;;;22.60;99.30;;;;;;5095378;28;20446;-77
2021/05/21 08:17:15;;;;;;;2.30;1.10;;;22.40;99.40;;;;;;5095560;28;20843;-78
2021/05/21 08:19:41;;;;;;;2.87;1.20;;;22.30;99.90;;;;;;5095595;28;20450;-77
2021/05/21 08:22:07;;;;;;;1.10;1.00;;;22.40;99.90;;;;;;5095464;28;20486;-78
2021/05/21 08:24:33;;;;;;;1.73;1.00;;;22.40;99.90;;;;;;5093416;28;20495;-78
2021/05/21 08:26:59;;;;;;;1.77;1.20;;;22.20;99.80;;;;;;5093813;28;20466;-77
2021/05/21 08:29:26;;;;;;;1.97;1.30;;;22.20;99.90;;;;;;5094273;28;20482;-77
2021/05/21 08:31:52;;;;;;;1.10;1.00;;;22.10;99.50;;;;;;5092997;28;20478;-77
2021/05/21 08:34:19;;;;;;;2.93;0.90;;;21.90;99.00;;;;;;5087981;28;20497;-77
2021/05/21 08:36:45;;;;;;;2.33;1.10;;;21.80;98.50;;;;;;5091056;28;20478;-77
2021/05/21 08:39:12;;;;;;;1.80;0.97;;;21.60;98.10;;;;;;5094626;28;20533;-77
2021/05/21 08:41:44;;;;;;;1.27;1.17;;;21.40;98.30;;;;;;5094979;28;20843;-77
2021/05/21 08:44:10;;;;;;;2.60;0.93;;;21.30;98.50;;;;;;5094944;28;20565;-79
2021/05/21 08:46:37;;;;;;;3.27;1.00;;;21.20;99.10;;;;;;5094411;28;20870;-77
2021/05/21 08:49:04;;;;;;;2.17;0.80;;;21.20;99.30;;;;;;5093731;28;20516;-77
2021/05/21 08:51:30;;;;;;;2.60;1.00;;;21.30;99.30;;;;;;5088176;28;20474;-77
2021/05/21 08:53:56;;;;;;;1.67;0.70;;;21.40;99.40;;;;;;5094662;28;20473;-77
2021/05/21 08:56:23;;;;;;;2.80;1.63;;;21.70;99.40;;;;;;5094534;28;20478;-77
2021/05/21 08:58:51;;;;;;;0.97;0.73;;;22.20;98.80;;;;;;5094427;28;20840;-77
2021/05/21 09:01:17;;;;;;;3.33;1.23;;;22.50;97.90;;;;;;5094330;28;20447;-77
2021/05/21 09:03:45;;;;;;;1.57;0.90;;;22.60;98.40;;;;;;5091230;28;20507;-78
2021/05/21 09:06:13;;;;;;;1.53;0.70;;;22.70;98.10;;;;;;5094140;28;20434;-78
2021/05/21 09:08:43;;;;;;;3.80;1.10;;;22.80;98.00;;;;;;5094074;28;20555;-77
2021/05/21 09:11:28;;;;;;;1.63;0.83;;;22.70;97.20;;;;;;5094054;28;20467;-77
2021/05/21 09:14:00;;;;;;;2.00;1.10;;;22.50;97.70;;;;;;5080036;28;20447;-77
2021/05/21 09:16:28;;;;;;;1.10;0.80;;;22.60;98.10;;;;;;5094035;28;20841;-77
2021/05/21 09:19:15;;;;;;;3.47;1.00;;;22.50;98.10;;;;;;5093939;28;20450;-77
2021/05/21 09:22:02;;;;;;;1.30;1.00;;;22.50;97.60;;;;;;5083815;28;20443;-78
2021/05/21 09:24:32;;;;;;;3.10;1.20;;;22.50;98.20;;;;;;5094070;28;20524;-77
2021/05/21 09:26:59;;;;;;;1.40;1.00;;;22.70;98.10;;;;;;5094091;28;20442;-77
2021/05/21 09:29:43;;;;;;;4.40;1.10;;;22.90;97.30;;;;;;5091267;28;20442;-77
2021/05/21 09:32:22;;;;;;;1.63;1.00;;;23.10;97.00;;;;;;5093828;28;20542;-77
2021/05/21 09:35:03;;;;;;;2.90;0.93;;;23.20;97.40;;;;;;5094145;28;20499;-78
2021/05/21 09:37:35;;;;;;;1.70;0.93;;;23.50;97.80;;;;;;5089325;28;20470;-78
2021/05/21 09:40:16;;;;;;;1.83;1.50;;;23.60;96.50;;;;;;5093741;28;20451;-77
2021/05/21 09:42:50;;;;;;;2.17;1.90;;;23.60;96.40;;;;;;5073888;28;20494;-77
2021/05/21 09:45:26;;;;;;;3.10;2.17;;;23.70;96.50;;;;;;5073797;28;20784;-78
2021/05/21 09:47:56;;;;;;;1.73;1.03;;;23.80;96.90;;;;;;5087641;28;20489;-77
2021/05/21 09:50:34;;;;;;;3.37;1.10;;;23.80;96.90;;;;;;5093532;28;20835;-77
2021/05/21 09:53:04;;;;;;;4.63;1.10;;;23.70;95.90;;;;;;5093267;28;20443;-78
2021/05/21 09:55:36;;;;;;;3.60;1.27;;;23.50;95.10;;;;;;5093508;28;20896;-78
2021/05/21 09:58:04;;;;;;;1.90;0.90;;;23.20;94.50;;;;;;5091657;28;20475;-78
2021/05/21 10:00:33;;;;;;;6.03;1.43;;;23.00;94.60;;;;;;5090715;28;20443;-77
2021/05/21 10:03:01;;;;;;;1.20;0.90;;;22.90;95.10;;;;;;5092912;28;20771;-77
2021/05/21 10:05:27;;;;;;;2.07;0.90;;;22.90;95.70;;;;;;5093197;28;20439;-77
2021/05/21 10:07:55;;;;;;;3.80;0.90;;;23.50;95.10;;;;;;5092970;28;20438;-78
2021/05/21 10:10:25;;;;;;;4.70;0.83;;;23.30;94.50;;;;;;5093040;28;20497;-78
2021/05/21 10:12:52;;;;;;;1.00;0.70;;;23.50;94.80;;;;;;5092775;28;20854;-78
2021/05/21 10:15:19;;;;;;;1.40;1.20;;;23.50;94.10;;;;;;5093202;28;20500;-77
2021/05/21 10:17:45;;;;;;;0.90;0.80;;;23.40;94.30;;;;;;5093027;28;20461;-78
2021/05/21 10:20:15;;;;;;;1.13;0.90;;;23.40;94.20;;;;;;5093104;28;20469;-78
2021/05/21 10:22:45;;;;;;;1.50;1.00;;;23.20;93.80;;;;;;5092742;28;20447;-78
2021/05/21 10:25:15;;;;;;;1.30;0.90;;;23.10;93.90;;;;;;5076643;28;20580;-78
2021/05/21 10:27:46;;;;;;;1.07;0.90;;;22.90;94.10;;;;;;5092705;28;20427;-77
2021/05/21 10:30:14;;;;;;;5.43;1.10;;;22.70;93.90;;;;;;5092937;28;20466;-77
2021/05/21 10:32:40;;;;;;;1.10;0.90;;;22.60;94.00;;;;;;5092587;28;20574;-78
2021/05/21 10:35:15;;;;;;;2.50;0.80;;;22.40;93.50;;;;;;5092494;28;20454;-78
2021/05/21 10:37:42;;;;;;;2.50;0.90;;;22.30;92.50;;;;;;5092722;28;20438;-78
2021/05/21 10:40:10;;;;;;;1.33;0.90;;;22.10;93.50;;;;;;5092640;28;20438;-77
2021/05/21 10:42:43;;;;;;;3.63;1.00;;;22.00;93.50;;;;;;5090917;28;20542;-78
2021/05/21 10:45:15;;;;;;;4.17;1.60;;;22.00;92.90;;;;;;5076425;28;20554;-78
2021/05/21 10:47:44;;;;;;;3.93;0.83;;;22.10;93.10;;;;;;5092646;28;20470;-77
2021/05/21 10:50:20;;;;;;;1.30;0.77;;;22.20;92.70;;;;;;5092718;28;21142;-77
2021/05/21 10:52:56;;;;;;;1.77;0.80;;;22.30;93.30;;;;;;5092245;28;20465;-77
2021/05/21 10:55:39;;;;;;;2.13;0.80;;;22.30;92.80;;;;;;5092631;28;20937;-78
2021/05/21 10:58:06;;;;;;;1.33;1.03;;;22.40;92.60;;;;;;5092626;28;20531;-77
2021/05/21 11:00:33;;;;;;;1.67;0.80;;;22.30;92.00;;;;;;5092645;28;20481;-77
2021/05/21 11:02:59;;;;;;;1.40;0.90;;;22.20;92.00;;;;;;5092153;28;20823;-78
2021/05/21 11:05:28;;;;;;;5.00;1.00;;;22.10;90.80;;;;;;5092230;28;21055;-77
2021/05/21 11:07:56;;;;;;;1.80;0.73;;;22.10;91.20;;;;;;5092364;28;20495;-78
2021/05/21 11:10:26;;;;;;;2.13;0.97;;;22.30;92.10;;;;;;5093111;28;20949;-77
2021/05/21 11:12:55;;;;;;;2.27;0.87;;;22.40;91.70;;;;;;5096264;28;20470;-77
2021/05/21 11:15:41;;;;;;;1.10;0.80;;;22.50;91.20;;;;;;5096361;28;20822;-78
2021/05/21 11:18:30;;;;;;;1.80;0.80;;;22.40;90.50;;;;;;5096556;28;20456;-77
2021/05/21 11:21:05;;;;;;;0.90;0.60;;;22.60;91.00;;;;;;5096427;28;20481;-77
2021/05/21 11:23:35;;;;;;;1.70;0.80;;;22.90;90.90;;;;;;5096113;28;20476;-77
2021/05/21 11:26:03;;;;;;;1.93;1.00;;;23.10;90.70;;;;;;5096097;28;20448;-77
2021/05/21 11:28:33;;;;;;;1.43;0.80;;;23.30;90.20;;;;;;5096268;28;20511;-77
2021/05/21 11:31:00;;;;;;;1.40;0.90;;;23.50;90.30;;;;;;5096246;28;20557;-77
2021/05/21 11:33:26;;;;;;;0.80;0.70;;;23.80;89.80;;;;;;5095992;28;20493;-78
2021/05/21 11:35:54;;;;;;;3.63;1.10;;;23.60;87.20;;;;;;5096023;28;20555;-77
2021/05/21 11:38:23;;;;;;;4.40;1.03;;;23.20;86.70;;;;;;5095821;28;20529;-77
2021/05/21 11:40:50;;;;;;;1.70;1.00;;;23.00;88.90;;;;;;5094580;28;20451;-77
2021/05/21 11:43:21;;;;;;;0.90;0.80;;;23.00;89.30;;;;;;5095802;28;21018;-77
2021/05/21 11:45:49;;;;;;;0.70;0.70;;;22.90;89.10;;;;;;5096122;28;20504;-78
2021/05/21 11:48:16;;;;;;;1.80;0.90;;;22.80;89.50;;;;;;5095795;28;20870;-77
2021/05/21 11:50:42;;;;;;;1.10;1.00;;;22.80;89.50;;;;;;5095707;28;20933;-77
2021/05/21 11:53:12;;;;;;;1.00;0.77;;;22.90;88.20;;;;;;5079211;28;20503;-78
2021/05/21 11:55:45;;;;;;;2.70;1.00;;;23.10;88.10;;;;;;5095833;28;21045;-78
2021/05/21 11:58:25;;;;;;;0.90;0.70;;;23.10;89.50;;;;;;5095846;28;20477;-77
2021/05/21 12:00:52;;;;;;;1.10;0.90;;;22.70;88.60;;;;;;5095715;28;20450;-77
2021/05/21 12:03:19;;;;;;;1.83;1.00;;;22.40;88.90;;;;;;5095091;28;20530;-77
2021/05/21 12:05:48;;;;;;;2.27;1.10;;;22.20;90.10;;;;;;5095783;28;20497;-77
2021/05/21 12:08:14;;;;;;;3.00;0.93;;;22.20;90.30;;;;;;5095424;28;20526;-77
2021/05/21 12:10:41;;;;;;;3.53;1.00;;;22.40;91.20;;;;;;5095219;28;20454;-77
2021/05/21 12:13:13;;;;;;;1.63;0.97;;;22.70;91.40;;;;;;5078604;28;20438;-77
2021/05/21 12:15:39;;;;;;;1.17;0.90;;;22.80;90.90;;;;;;5095490;28;20481;-77
2021/05/21 12:18:05;;;;;;;2.60;1.00;;;22.60;91.30;;;;;;5095201;28;20446;-79
2021/05/21 12:20:35;;;;;;;0.70;0.63;;;22.40;90.20;;;;;;5095170;28;20439;-77
2021/05/21 12:23:05;;;;;;;1.27;0.73;;;22.20;90.30;;;;;;5090568;28;20546;-77
2021/05/21 12:25:32;;;;;;;1.90;0.80;;;22.30;90.60;;;;;;5095161;28;20453;-77
2021/05/21 12:28:00;;;;;;;2.50;0.70;;;22.40;90.40;;;;;;5088521;28;20477;-77
2021/05/21 12:30:28;;;;;;;3.73;1.00;;;22.40;90.20;;;;;;5094914;28;20449;-77
2021/05/21 12:32:54;;;;;;;1.33;0.90;;;22.40;90.00;;;;;;5095214;28;20548;-77
2021/05/21 12:35:38;;;;;;;1.77;1.20;;;22.40;90.30;;;;;;5094979;28;20526;-77
2021/05/21 12:38:09;;;;;;;1.00;0.80;;;22.50;91.20;;;;;;5078481;28;20539;-77
2021/05/21 12:40:35;;;;;;;1.67;0.90;;;22.60;91.40;;;;;;5094403;28;20449;-77
2021/05/21 12:43:09;;;;;;;3.13;1.17;;;22.80;91.00;;;;;;5094812;28;20533;-78
2021/05/21 12:45:36;;;;;;;4.23;1.20;;;23.00;91.30;;;;;;5094922;28;20533;-77
2021/05/21 12:48:02;;;;;;;3.13;1.10;;;23.10;91.20;;;;;;5094679;28;20536;-77
2021/05/21 12:50:32;;;;;;;3.80;0.90;;;23.20;91.00;;;;;;5094802;28;20858;-77